Time;durP1;ratioP1;P1;durP2;ratioP2;P2;SDS_P1;SDS_P2;PMS_P1;PMS_P2;Temp;Humidity;BMP_temperature;BMP_pressure;BME280_temperature;BME280_humidity;BME280_pressure;Samples;Min_cycle;Max_cycle;Signal;HPM_P1;HPM_P2
2022/05/16 00:00:17;;;;;;;1.40;1.30;;;19.60;42.20;;;;;;5012530;28;20041;-71
2022/05/16 00:02:43;;;;;;;1.23;1.20;;;19.60;42.30;;;;;;5012286;28;20030;-71
2022/05/16 00:05:09;;;;;;;1.60;1.40;;;19.60;42.40;;;;;;5016614;28;20395;-71
2022/05/16 00:07:36;;;;;;;2.33;1.38;;;19.50;42.40;;;;;;5031926;28;20034;-71
2022/05/16 00:10:03;;;;;;;1.50;1.30;;;19.60;42.50;;;;;;5017301;28;20030;-71
2022/05/16 00:12:29;;;;;;;1.83;1.20;;;19.60;42.50;;;;;;5017654;28;20041;-69
2022/05/16 00:14:55;;;;;;;1.80;1.25;;;19.60;42.60;;;;;;5017101;28;20034;-69
2022/05/16 00:17:21;;;;;;;1.65;1.20;;;19.60;42.50;;;;;;5016986;28;20026;-69
2022/05/16 00:19:46;;;;;;;2.25;1.30;;;19.70;42.70;;;;;;5017134;28;20475;-69
2022/05/16 00:22:12;;;;;;;1.77;1.35;;;19.70;42.70;;;;;;5016969;28;20030;-69
2022/05/16 00:24:42;;;;;;;1.52;0.98;;;19.70;42.60;;;;;;5016890;28;20129;-69
2022/05/16 00:27:09;;;;;;;1.40;1.25;;;19.70;42.70;;;;;;5015676;28;20026;-69
2022/05/16 00:29:35;;;;;;;1.67;1.08;;;19.80;43.30;;;;;;5016770;28;20034;-70
2022/05/16 00:32:01;;;;;;;1.27;1.02;;;19.80;42.80;;;;;;5017062;28;20022;-70
2022/05/16 00:34:27;;;;;;;1.40;1.30;;;19.70;42.80;;;;;;5016867;28;20030;-70
2022/05/16 00:36:52;;;;;;;1.33;1.20;;;19.70;42.90;;;;;;5016805;28;20030;-70
2022/05/16 00:39:21;;;;;;;1.00;0.90;;;19.70;42.90;;;;;;5017097;28;20034;-69
2022/05/16 00:41:48;;;;;;;1.40;1.25;;;19.70;42.90;;;;;;5016863;28;20021;-69
2022/05/16 00:44:14;;;;;;;2.50;1.30;;;19.70;43.00;;;;;;5016414;28;20038;-70
2022/05/16 00:46:39;;;;;;;1.63;1.13;;;19.80;43.00;;;;;;5015462;28;20096;-70
2022/05/16 00:49:11;;;;;;;2.05;1.40;;;19.80;43.00;;;;;;5016732;28;20026;-69
2022/05/16 00:52:00;;;;;;;1.05;1.02;;;19.80;43.00;;;;;;5015740;28;20026;-69
2022/05/16 00:54:37;;;;;;;1.60;1.35;;;19.80;43.50;;;;;;5016467;28;20034;-69
2022/05/16 00:57:12;;;;;;;3.40;1.38;;;19.70;43.10;;;;;;5016617;28;20026;-70
2022/05/16 01:00:06;;;;;;;1.15;1.05;;;19.60;43.30;;;;;;5016642;28;20026;-69
2022/05/16 01:05:23;;;;;;;1.25;1.15;;;19.40;43.50;;;;;;5016406;28;20124;-70
2022/05/16 01:07:48;;;;;;;1.45;1.35;;;19.30;43.60;;;;;;5016508;28;20108;-69
2022/05/16 01:10:21;;;;;;;2.75;1.20;;;19.20;43.80;;;;;;5015171;28;20026;-70
2022/05/16 01:12:50;;;;;;;1.75;1.30;;;19.20;44.00;;;;;;5016322;28;20029;-69
2022/05/16 01:15:30;;;;;;;3.05;1.55;;;19.20;44.00;;;;;;5016002;28;20059;-70
2022/05/16 01:17:56;;;;;;;1.50;1.40;;;19.10;44.10;;;;;;5014560;28;20034;-69
2022/05/16 01:20:22;;;;;;;1.42;1.30;;;19.10;44.10;;;;;;5016075;28;20096;-69
2022/05/16 01:22:52;;;;;;;4.68;1.40;;;19.10;44.20;;;;;;5015951;28;20029;-69
2022/05/16 01:25:28;;;;;;;2.58;1.17;;;19.10;44.20;;;;;;5015929;28;20046;-69
2022/05/16 01:27:55;;;;;;;1.40;1.30;;;19.10;44.40;;;;;;5015940;28;20526;-70
2022/05/16 01:30:41;;;;;;;1.52;1.33;;;19.10;44.30;;;;;;5015890;28;20022;-69
2022/05/16 01:33:07;;;;;;;2.13;1.30;;;19.00;44.50;;;;;;5014850;28;20056;-69
2022/05/16 01:35:33;;;;;;;2.53;1.40;;;19.00;44.40;;;;;;5015571;28;20116;-69
2022/05/16 01:40:48;;;;;;;2.35;1.52;;;18.90;44.50;;;;;;5015897;28;20483;-69
2022/05/16 01:43:14;;;;;;;1.67;1.50;;;18.90;44.70;;;;;;5015765;28;20092;-70
2022/05/16 01:45:42;;;;;;;1.40;1.30;;;18.80;44.70;;;;;;5014364;28;20046;-70
2022/05/16 01:48:08;;;;;;;1.30;1.20;;;18.80;44.80;;;;;;5015402;28;20056;-69
2022/05/16 01:50:34;;;;;;;1.70;1.60;;;18.80;44.80;;;;;;5015362;28;20452;-70
2022/05/16 01:52:59;;;;;;;1.45;1.20;;;18.80;44.90;;;;;;5015196;28;20061;-70
2022/05/16 01:55:25;;;;;;;1.30;1.20;;;18.70;44.90;;;;;;5015410;28;20116;-69
2022/05/16 01:57:51;;;;;;;1.35;1.20;;;18.80;45.00;;;;;;5015486;28;20037;-70
2022/05/16 02:00:18;;;;;;;1.95;1.35;;;18.80;45.00;;;;;;5015406;28;20425;-70
2022/05/16 02:02:44;;;;;;;2.17;1.60;;;18.80;45.10;;;;;;5015525;28;20030;-70
2022/05/16 02:05:13;;;;;;;1.63;1.50;;;18.80;45.70;;;;;;5015080;28;20034;-70
2022/05/16 02:07:39;;;;;;;3.05;1.50;;;18.80;45.10;;;;;;5014928;28;20049;-70
2022/05/16 02:10:06;;;;;;;1.95;1.65;;;18.80;45.20;;;;;;5014985;28;20022;-70
2022/05/16 02:12:33;;;;;;;2.58;1.20;;;18.70;45.20;;;;;;5013620;28;20104;-70
2022/05/16 02:14:59;;;;;;;1.35;1.20;;;18.70;45.20;;;;;;5015242;28;20109;-70
2022/05/16 02:17:25;;;;;;;1.73;1.25;;;18.70;45.30;;;;;;5015138;28;20109;-70
2022/05/16 02:19:50;;;;;;;1.20;1.10;;;18.80;45.40;;;;;;5014840;28;20384;-70
2022/05/16 02:25:00;;;;;;;2.08;1.60;;;18.80;45.30;;;;;;5014896;28;20060;-70
2022/05/16 02:27:26;;;;;;;1.85;1.40;;;18.90;45.30;;;;;;5015031;28;20030;-70
2022/05/16 02:29:51;;;;;;;1.35;1.25;;;18.90;45.30;;;;;;5014162;28;20110;-70
2022/05/16 02:32:17;;;;;;;1.27;1.15;;;18.90;45.40;;;;;;5014697;28;20471;-70
2022/05/16 02:34:44;;;;;;;1.33;1.10;;;18.90;45.30;;;;;;5014612;28;20026;-70
2022/05/16 02:37:11;;;;;;;2.35;1.40;;;18.90;46.00;;;;;;5014429;28;20457;-70
2022/05/16 02:39:37;;;;;;;1.50;1.40;;;18.90;45.40;;;;;;5014624;28;20552;-70
2022/05/16 02:42:04;;;;;;;2.05;1.65;;;18.90;45.40;;;;;;5013617;28;20025;-70
2022/05/16 02:44:30;;;;;;;2.20;1.40;;;18.90;45.40;;;;;;5014518;28;20041;-70
2022/05/16 02:46:56;;;;;;;2.00;1.52;;;18.90;45.50;;;;;;5014391;28;20052;-70
2022/05/16 02:49:22;;;;;;;2.75;1.90;;;18.90;45.50;;;;;;5014633;28;20030;-70
2022/05/16 02:51:48;;;;;;;1.55;1.42;;;18.80;45.50;;;;;;5013113;28;20036;-70
2022/05/16 02:54:13;;;;;;;1.77;1.50;;;18.80;45.60;;;;;;5014513;28;20041;-70
2022/05/16 02:56:39;;;;;;;1.52;1.42;;;18.80;45.60;;;;;;5013389;28;20025;-70
2022/05/16 02:59:05;;;;;;;1.50;1.40;;;18.70;46.30;;;;;;5014306;28;20452;-70
2022/05/16 03:01:34;;;;;;;3.42;2.00;;;18.70;45.80;;;;;;5012866;28;20034;-70
2022/05/16 03:04:00;;;;;;;2.75;1.80;;;18.60;45.80;;;;;;5014279;28;20423;-70
2022/05/16 03:06:26;;;;;;;2.30;1.50;;;18.60;45.80;;;;;;5012949;28;20033;-70
2022/05/16 03:08:51;;;;;;;1.52;1.42;;;18.50;45.90;;;;;;5012760;28;20026;-70
2022/05/16 03:11:17;;;;;;;1.35;1.25;;;18.50;46.00;;;;;;5014268;28;20097;-70
2022/05/16 03:13:43;;;;;;;3.17;1.65;;;18.50;46.00;;;;;;5014184;28;20026;-70
2022/05/16 03:16:09;;;;;;;1.40;1.25;;;18.50;46.10;;;;;;5012615;28;20502;-71
2022/05/16 03:18:35;;;;;;;3.72;1.73;;;18.50;46.10;;;;;;5014040;28;20408;-70
2022/05/16 03:21:00;;;;;;;2.72;1.60;;;18.50;46.10;;;;;;5013855;28;20022;-70
2022/05/16 03:23:26;;;;;;;2.67;1.60;;;18.50;46.10;;;;;;5013969;28;20033;-70
2022/05/16 03:25:53;;;;;;;2.05;1.73;;;18.50;46.20;;;;;;5014233;28;20064;-70
2022/05/16 03:28:18;;;;;;;2.03;1.50;;;18.50;46.30;;;;;;5013938;28;20523;-70
2022/05/16 03:30:45;;;;;;;2.20;1.60;;;18.50;46.30;;;;;;5012734;28;20034;-70
2022/05/16 03:33:11;;;;;;;2.90;1.88;;;18.50;46.30;;;;;;5013938;28;20022;-70
2022/05/16 03:35:36;;;;;;;2.50;1.67;;;18.50;46.30;;;;;;5013941;28;20063;-70
2022/05/16 03:38:03;;;;;;;1.95;1.42;;;18.50;46.30;;;;;;5013957;28;20022;-70
2022/05/16 03:40:45;;;;;;;1.73;1.58;;;18.50;46.30;;;;;;5015492;28;20041;-70
2022/05/16 03:43:13;;;;;;;1.95;1.58;;;18.50;46.40;;;;;;5017750;28;20036;-70
2022/05/16 03:45:39;;;;;;;3.42;1.40;;;18.60;46.40;;;;;;5017805;28;20227;-70
2022/05/16 03:48:05;;;;;;;1.70;1.60;;;18.50;46.40;;;;;;5017862;28;20037;-70
2022/05/16 03:50:31;;;;;;;1.90;1.70;;;18.60;46.50;;;;;;5017851;28;20033;-70
2022/05/16 03:52:59;;;;;;;1.95;1.70;;;18.60;46.50;;;;;;5017626;28;20108;-70
2022/05/16 03:55:26;;;;;;;1.85;1.70;;;18.60;46.50;;;;;;5017748;28;20108;-70
2022/05/16 03:57:52;;;;;;;2.50;1.50;;;18.60;46.50;;;;;;5017597;28;20033;-70
2022/05/16 04:00:18;;;;;;;2.78;1.80;;;18.60;46.50;;;;;;5017595;28;20049;-70
2022/05/16 04:02:44;;;;;;;2.90;1.88;;;18.70;46.50;;;;;;5016708;28;20036;-70
2022/05/16 04:05:15;;;;;;;2.13;1.52;;;18.70;46.50;;;;;;5016183;28;20061;-70
2022/05/16 04:07:41;;;;;;;2.83;1.70;;;18.70;46.50;;;;;;5017260;28;20440;-70
2022/05/16 04:10:07;;;;;;;2.65;1.70;;;18.70;46.50;;;;;;5017419;28;20025;-70
2022/05/16 04:12:34;;;;;;;1.75;1.45;;;18.80;46.60;;;;;;5017268;28;20057;-71
2022/05/16 04:15:00;;;;;;;4.70;1.70;;;18.80;46.50;;;;;;5016078;28;20513;-70
2022/05/16 04:17:26;;;;;;;1.58;1.48;;;18.90;46.50;;;;;;5017475;28;20065;-70
2022/05/16 04:19:52;;;;;;;1.77;1.67;;;18.90;46.50;;;;;;5017417;28;20052;-70
2022/05/16 04:22:18;;;;;;;1.35;1.25;;;18.90;46.50;;;;;;5015635;28;20026;-70
2022/05/16 04:24:44;;;;;;;3.20;1.55;;;19.00;46.50;;;;;;5017047;28;20119;-70
2022/05/16 04:27:10;;;;;;;3.03;1.60;;;19.00;46.50;;;;;;5017060;28;20063;-71
2022/05/16 04:29:36;;;;;;;1.63;1.40;;;19.10;46.50;;;;;;5017086;28;20033;-71
2022/05/16 04:32:02;;;;;;;1.52;1.42;;;19.10;46.40;;;;;;5017080;28;20026;-71
2022/05/16 04:34:28;;;;;;;1.80;1.35;;;19.20;46.40;;;;;;5017019;28;20456;-71
2022/05/16 04:36:53;;;;;;;2.03;1.55;;;19.20;46.40;;;;;;5016630;28;20057;-71
2022/05/16 04:39:19;;;;;;;1.85;1.40;;;19.20;46.30;;;;;;5015387;28;20029;-71
2022/05/16 04:44:36;;;;;;;1.60;1.50;;;19.20;46.30;;;;;;5016774;28;20044;-70
2022/05/16 04:47:02;;;;;;;1.40;1.30;;;19.20;46.30;;;;;;5017016;28;20118;-70
2022/05/16 04:49:28;;;;;;;1.27;1.17;;;19.20;46.30;;;;;;5016464;28;20104;-70
2022/05/16 04:51:54;;;;;;;1.70;1.17;;;19.30;46.30;;;;;;5015916;28;20117;-70
2022/05/16 04:54:19;;;;;;;1.75;1.45;;;19.40;46.30;;;;;;5015357;28;20433;-70
2022/05/16 04:56:46;;;;;;;1.50;1.38;;;19.50;46.20;;;;;;5016693;28;20058;-70
2022/05/16 04:59:13;;;;;;;1.73;1.30;;;19.50;46.00;;;;;;5017199;28;20021;-71
2022/05/16 05:01:38;;;;;;;3.33;1.73;;;19.50;45.90;;;;;;5015365;28;20025;-71
2022/05/16 05:04:04;;;;;;;1.80;1.33;;;19.60;46.00;;;;;;5015198;28;20494;-71
2022/05/16 05:06:30;;;;;;;1.60;1.38;;;19.60;45.90;;;;;;5015056;28;20030;-71
2022/05/16 05:08:56;;;;;;;1.38;1.25;;;19.60;45.80;;;;;;5016068;28;20022;-71
2022/05/16 05:16:51;;;;;;;2.03;1.27;;;19.80;45.60;;;;;;5016211;28;20040;-71
2022/05/16 05:19:17;;;;;;;2.45;1.55;;;19.90;45.60;;;;;;5014453;28;20033;-70
2022/05/16 05:21:42;;;;;;;1.75;1.30;;;19.90;45.40;;;;;;5016301;28;20022;-71
2022/05/16 05:24:09;;;;;;;1.55;1.33;;;20.00;45.40;;;;;;5014364;28;20156;-71
2022/05/16 05:26:35;;;;;;;1.27;1.17;;;20.00;45.30;;;;;;5015758;28;20034;-68
2022/05/16 05:29:01;;;;;;;3.42;1.48;;;20.00;45.20;;;;;;5015725;28;20030;-72
2022/05/16 05:31:27;;;;;;;1.85;1.48;;;20.10;45.20;;;;;;5014621;28;20354;-71
2022/05/16 05:33:56;;;;;;;1.40;1.30;;;20.10;45.00;;;;;;5015487;28;20041;-72
2022/05/16 05:36:22;;;;;;;2.28;1.40;;;20.00;45.20;;;;;;5015794;28;20022;-71
2022/05/16 05:38:51;;;;;;;3.22;1.63;;;20.00;45.00;;;;;;5015796;28;20026;-72
2022/05/16 05:41:18;;;;;;;1.58;1.27;;;20.10;45.00;;;;;;5015577;28;20018;-71
2022/05/16 05:43:45;;;;;;;1.55;1.35;;;20.10;44.90;;;;;;5015175;28;20487;-72
2022/05/16 05:46:10;;;;;;;1.00;0.98;;;20.10;44.70;;;;;;5014173;28;20384;-73
2022/05/16 05:48:36;;;;;;;1.52;1.20;;;20.10;44.70;;;;;;5014490;28;20057;-72
2022/05/16 05:51:02;;;;;;;1.30;1.20;;;20.10;44.50;;;;;;5015378;28;20483;-73
2022/05/16 05:53:28;;;;;;;2.35;1.38;;;20.00;44.40;;;;;;5015671;28;20103;-72
2022/05/16 05:55:54;;;;;;;1.55;1.45;;;20.10;44.50;;;;;;5015364;28;20093;-72
2022/05/16 05:58:21;;;;;;;2.17;1.70;;;20.00;44.40;;;;;;5015159;28;20033;-72
2022/05/16 06:00:47;;;;;;;1.45;1.00;;;20.00;44.40;;;;;;5015354;28;20022;-73
2022/05/16 06:03:13;;;;;;;1.80;1.30;;;20.00;44.20;;;;;;5013329;28;20032;-72
2022/05/16 06:05:39;;;;;;;2.65;1.50;;;20.00;44.10;;;;;;5014543;28;20034;-72
2022/05/16 06:08:05;;;;;;;2.17;1.10;;;20.00;44.00;;;;;;5015036;28;20038;-72
2022/05/16 06:10:31;;;;;;;1.42;1.30;;;19.90;44.00;;;;;;5015117;28;20052;-73
2022/05/16 06:12:57;;;;;;;1.80;1.25;;;20.00;44.20;;;;;;5014947;28;20419;-71
2022/05/16 06:15:35;;;;;;;2.58;1.30;;;20.00;44.10;;;;;;5013409;28;20141;-72
2022/05/16 06:18:01;;;;;;;1.83;1.27;;;20.10;44.10;;;;;;5014918;28;20034;-72
2022/05/16 06:20:29;;;;;;;1.20;1.10;;;20.10;44.00;;;;;;5015168;28;20040;-70
2022/05/16 06:22:56;;;;;;;3.38;1.17;;;20.20;44.00;;;;;;5014405;28;20851;-71
2022/05/16 06:26:00;;;;;;;1.92;1.30;;;20.20;43.90;;;;;;5012966;28;20042;-71
2022/05/16 06:28:37;;;;;;;1.90;1.20;;;20.20;43.60;;;;;;5017390;28;20396;-72
2022/05/16 06:31:04;;;;;;;2.47;0.93;;;20.30;43.70;;;;;;4998757;28;20076;-69
2022/05/16 06:33:34;;;;;;;2.22;1.15;;;20.20;43.30;;;;;;5014438;28;20030;-70
2022/05/16 06:36:00;;;;;;;2.20;1.00;;;20.20;43.30;;;;;;5013208;28;20045;-70
2022/05/16 06:38:30;;;;;;;3.03;0.98;;;20.20;43.20;;;;;;5014299;28;20026;-69
2022/05/16 06:40:58;;;;;;;1.08;1.05;;;20.20;43.00;;;;;;5013748;28;20026;-70
2022/05/16 06:43:25;;;;;;;0.90;0.88;;;20.20;42.90;;;;;;5013253;28;20060;-69
2022/05/16 06:45:52;;;;;;;0.75;0.75;;;20.20;42.80;;;;;;5012936;28;20132;-69
2022/05/16 06:48:17;;;;;;;0.80;0.80;;;20.20;42.60;;;;;;5014477;28;20487;-69
2022/05/16 06:50:45;;;;;;;0.82;0.82;;;20.20;42.50;;;;;;5014188;28;20034;-71
2022/05/16 06:53:14;;;;;;;1.00;0.90;;;20.20;42.20;;;;;;5014423;28;20356;-71
2022/05/16 06:55:40;;;;;;;0.70;0.70;;;20.20;42.00;;;;;;5013147;28;20072;-70
2022/05/16 06:58:06;;;;;;;0.80;0.80;;;20.20;41.90;;;;;;5014204;28;20480;-70
2022/05/16 07:00:32;;;;;;;2.55;1.10;;;20.20;41.80;;;;;;5014106;28;20033;-69
2022/05/16 07:02:57;;;;;;;2.10;0.90;;;20.10;41.70;;;;;;5013974;28;20531;-70
2022/05/16 07:05:23;;;;;;;1.00;0.80;;;20.10;41.60;;;;;;5013814;28;20112;-70
2022/05/16 07:07:49;;;;;;;1.48;0.90;;;20.10;41.50;;;;;;5013950;28;20061;-70
2022/05/16 07:10:14;;;;;;;0.75;0.75;;;20.20;41.40;;;;;;5014051;28;20057;-70
2022/05/16 07:12:40;;;;;;;0.70;0.70;;;20.10;41.20;;;;;;5014317;28;20030;-69
2022/05/16 07:15:06;;;;;;;1.05;0.80;;;20.10;41.20;;;;;;5013717;28;20361;-69
2022/05/16 07:17:32;;;;;;;0.73;0.73;;;20.10;41.10;;;;;;5013682;28;20411;-70
2022/05/16 07:19:59;;;;;;;0.95;0.90;;;20.10;41.00;;;;;;5013572;28;20071;-70
2022/05/16 07:22:25;;;;;;;1.88;0.90;;;20.10;41.00;;;;;;5013738;28;20105;-69
2022/05/16 07:24:53;;;;;;;1.10;0.80;;;20.10;41.00;;;;;;5013510;28;20081;-69
2022/05/16 07:30:06;;;;;;;0.80;0.80;;;20.10;40.90;;;;;;5013757;28;20057;-69
2022/05/16 07:32:45;;;;;;;0.80;0.80;;;20.20;40.80;;;;;;5012250;28;20542;-70
2022/05/16 07:35:14;;;;;;;0.73;0.73;;;20.20;40.50;;;;;;5012385;28;20030;-69
2022/05/16 07:37:40;;;;;;;0.70;0.70;;;20.20;40.60;;;;;;5012322;28;20034;-69
2022/05/16 07:40:08;;;;;;;1.15;0.90;;;20.20;40.50;;;;;;5012750;28;20033;-69
2022/05/16 07:42:35;;;;;;;0.70;0.70;;;20.20;40.30;;;;;;5013450;28;20022;-70
2022/05/16 07:45:02;;;;;;;0.60;0.60;;;20.30;40.30;;;;;;5013190;28;20388;-70
2022/05/16 07:47:30;;;;;;;1.05;0.80;;;20.30;40.20;;;;;;5013360;28;20068;-69
2022/05/16 07:49:57;;;;;;;0.70;0.70;;;20.40;40.10;;;;;;5012030;28;20034;-70
2022/05/16 07:52:23;;;;;;;0.90;0.90;;;20.40;40.00;;;;;;5013276;28;20049;-70
2022/05/16 07:54:49;;;;;;;0.80;0.80;;;20.40;39.90;;;;;;5011971;28;20048;-70
2022/05/16 07:57:15;;;;;;;0.63;0.63;;;20.50;39.90;;;;;;5013324;28;20101;-70
2022/05/16 07:59:41;;;;;;;0.80;0.80;;;20.50;39.80;;;;;;5011927;28;20415;-70
2022/05/16 08:02:08;;;;;;;1.05;0.75;;;20.60;39.80;;;;;;5012374;28;20033;-71
2022/05/16 08:04:34;;;;;;;1.17;0.75;;;20.70;39.60;;;;;;5013377;28;20029;-69
2022/05/16 08:07:01;;;;;;;0.77;0.73;;;20.80;39.50;;;;;;5013285;28;20026;-70
2022/05/16 08:12:11;;;;;;;0.60;0.60;;;21.00;39.90;;;;;;5013265;28;20033;-71
2022/05/16 08:14:38;;;;;;;0.75;0.60;;;21.10;39.20;;;;;;5013530;28;20034;-69
2022/05/16 08:17:04;;;;;;;0.50;0.50;;;21.20;38.90;;;;;;5012219;28;20026;-69
2022/05/16 08:19:33;;;;;;;2.03;0.70;;;21.20;38.80;;;;;;5013683;28;20022;-69
2022/05/16 08:21:59;;;;;;;0.82;0.82;;;21.30;38.70;;;;;;5013015;28;20042;-69
2022/05/16 08:24:25;;;;;;;0.60;0.57;;;21.40;38.60;;;;;;5013052;28;20099;-70
2022/05/16 08:26:51;;;;;;;0.55;0.55;;;21.40;38.50;;;;;;5013185;28;20061;-70
2022/05/16 08:29:17;;;;;;;1.83;0.70;;;21.50;38.50;;;;;;5015438;28;20354;-71
2022/05/16 08:31:42;;;;;;;1.17;0.88;;;21.60;38.40;;;;;;5016645;28;20026;-69
2022/05/16 08:34:08;;;;;;;2.00;0.75;;;21.70;38.30;;;;;;5016752;28;20033;-70
2022/05/16 08:42:08;;;;;;;0.50;0.50;;;21.90;38.00;;;;;;5016778;28;20045;-69
2022/05/16 08:44:41;;;;;;;1.40;0.70;;;21.90;37.90;;;;;;5015160;28;20057;-70
2022/05/16 08:47:45;;;;;;;2.47;0.70;;;22.00;37.80;;;;;;5016022;28;20088;-69
2022/05/16 08:50:23;;;;;;;1.10;0.70;;;22.00;37.50;;;;;;5015403;28;20117;-69
2022/05/16 08:52:58;;;;;;;0.73;0.70;;;22.00;37.60;;;;;;5015286;28;20030;-69
2022/05/16 08:55:39;;;;;;;2.05;0.70;;;22.10;37.70;;;;;;5016325;28;20108;-69
2022/05/16 08:58:09;;;;;;;0.77;0.60;;;22.10;37.20;;;;;;5016270;28;20058;-70
2022/05/16 09:00:52;;;;;;;3.53;0.85;;;22.20;37.50;;;;;;5016089;28;20029;-69
2022/05/16 09:03:28;;;;;;;0.85;0.70;;;22.20;37.20;;;;;;5016304;28;20022;-69
2022/05/16 09:06:01;;;;;;;0.80;0.80;;;22.20;37.30;;;;;;5016115;28;20034;-70
2022/05/16 09:08:42;;;;;;;1.00;0.70;;;22.20;37.30;;;;;;5016516;28;20121;-71
2022/05/16 09:11:27;;;;;;;1.25;0.55;;;22.30;37.30;;;;;;5016240;28;20077;-69
2022/05/16 09:14:06;;;;;;;0.85;0.65;;;22.30;37.30;;;;;;5016356;28;20026;-70
2022/05/16 09:16:40;;;;;;;0.82;0.70;;;22.30;36.70;;;;;;5014653;28;20026;-70
2022/05/16 09:19:16;;;;;;;0.70;0.70;;;22.30;37.20;;;;;;5016062;28;20065;-70
2022/05/16 09:21:45;;;;;;;0.60;0.60;;;22.20;37.00;;;;;;5016089;28;20399;-70
2022/05/16 09:24:15;;;;;;;0.85;0.63;;;22.30;37.30;;;;;;5015645;28;20073;-70
2022/05/16 09:26:55;;;;;;;0.80;0.80;;;22.40;37.30;;;;;;5015701;28;20080;-70
2022/05/16 09:29:26;;;;;;;0.77;0.60;;;22.40;37.10;;;;;;5014294;28;20026;-70
2022/05/16 09:31:56;;;;;;;0.80;0.70;;;22.50;37.10;;;;;;5015803;28;20437;-69
2022/05/16 09:34:22;;;;;;;1.50;0.70;;;22.50;37.00;;;;;;5015407;28;20088;-70
2022/05/16 09:36:49;;;;;;;0.82;0.80;;;22.50;37.00;;;;;;5015364;28;20101;-69
2022/05/16 09:39:24;;;;;;;0.77;0.63;;;22.50;37.00;;;;;;5014297;28;20346;-69
2022/05/16 09:42:12;;;;;;;2.47;0.80;;;22.50;36.80;;;;;;5014162;28;20105;-70
2022/05/16 09:44:44;;;;;;;0.80;0.80;;;22.60;36.90;;;;;;5015343;28;20370;-70
2022/05/16 09:47:19;;;;;;;0.70;0.70;;;22.60;36.90;;;;;;5015705;28;20066;-70
2022/05/16 09:50:03;;;;;;;1.10;0.80;;;22.70;37.00;;;;;;5015597;28;20121;-69
2022/05/16 09:52:32;;;;;;;0.60;0.60;;;22.80;36.90;;;;;;5015908;28;20434;-69
2022/05/16 09:55:07;;;;;;;0.73;0.63;;;22.80;36.80;;;;;;5014008;28;20125;-69
2022/05/16 09:57:48;;;;;;;0.60;0.60;;;22.90;36.80;;;;;;5015407;28;20030;-70
2022/05/16 10:00:19;;;;;;;1.42;0.88;;;22.90;36.60;;;;;;5015262;28;20117;-70
2022/05/16 10:03:01;;;;;;;0.65;0.65;;;22.90;36.70;;;;;;5014015;28;20066;-70
2022/05/16 10:05:31;;;;;;;1.30;0.85;;;22.90;36.50;;;;;;5015387;28;20030;-70
2022/05/16 10:08:05;;;;;;;1.75;0.60;;;22.90;36.60;;;;;;5013712;28;20076;-70
2022/05/16 10:10:38;;;;;;;0.70;0.70;;;22.90;36.50;;;;;;5013989;28;20033;-70
2022/05/16 10:13:05;;;;;;;0.80;0.80;;;22.80;36.50;;;;;;5013821;28;20037;-70
2022/05/16 10:15:33;;;;;;;1.20;1.10;;;22.80;36.60;;;;;;5013712;28;20453;-70
2022/05/16 10:18:00;;;;;;;1.15;0.90;;;22.80;36.60;;;;;;5013851;28;20045;-69
2022/05/16 10:20:35;;;;;;;1.85;0.68;;;22.70;36.60;;;;;;5015113;28;20045;-69
2022/05/16 10:23:08;;;;;;;0.70;0.70;;;22.70;36.60;;;;;;5014685;28;20026;-69
2022/05/16 10:25:43;;;;;;;0.65;0.60;;;22.80;36.60;;;;;;5015250;28;20453;-71
2022/05/16 10:28:15;;;;;;;1.15;0.82;;;22.80;36.60;;;;;;5015095;28;20472;-69
2022/05/16 10:33:32;;;;;;;1.23;0.63;;;22.90;36.50;;;;;;5014876;28;20036;-70
2022/05/16 10:36:08;;;;;;;0.93;0.80;;;22.90;36.50;;;;;;5014404;28;20472;-70
2022/05/16 10:38:38;;;;;;;0.60;0.60;;;22.90;36.50;;;;;;5014737;28;20456;-70
2022/05/16 10:41:10;;;;;;;2.22;0.90;;;22.90;36.50;;;;;;5013304;28;20034;-70
2022/05/16 10:43:55;;;;;;;1.20;0.98;;;23.00;36.50;;;;;;5014604;28;20025;-69
2022/05/16 10:46:34;;;;;;;;;;;23.10;36.30;;;;;;5014921;28;20037;-69
2022/05/16 10:49:09;;;;;;;0.80;0.73;;;23.10;36.00;;;;;;5014313;28;19952;-70
2022/05/16 10:52:09;;;;;;;0.70;0.70;;;23.10;36.40;;;;;;5014080;28;20479;-70
2022/05/16 10:54:35;;;;;;;0.80;0.80;;;23.20;36.30;;;;;;5017475;28;20077;-70
2022/05/16 10:57:34;;;;;;;0.77;0.77;;;23.10;36.30;;;;;;5014199;28;20064;-70
2022/05/16 11:00:08;;;;;;;1.08;0.82;;;23.10;36.10;;;;;;5014118;28;20037;-70
2022/05/16 11:02:42;;;;;;;0.90;0.90;;;23.00;36.30;;;;;;5014134;28;20030;-69
2022/05/16 11:05:32;;;;;;;3.03;0.88;;;23.00;36.30;;;;;;5012831;28;20535;-69
2022/05/16 11:08:16;;;;;;;1.05;0.93;;;23.00;36.40;;;;;;5014198;28;20037;-69
2022/05/16 11:10:47;;;;;;;;;;;22.90;36.40;;;;;;5014238;28;20034;-70
2022/05/16 11:13:28;;;;;;;0.90;0.80;;;22.90;35.80;;;;;;5014007;28;19913;-70
2022/05/16 11:15:58;;;;;;;0.63;0.60;;;23.00;36.30;;;;;;5012579;28;20034;-69
2022/05/16 11:18:43;;;;;;;0.80;0.80;;;23.10;36.30;;;;;;5013886;28;20069;-70
2022/05/16 11:21:37;;;;;;;0.60;0.60;;;23.10;35.90;;;;;;5013877;28;20353;-69
2022/05/16 11:24:16;;;;;;;0.70;0.70;;;23.20;36.10;;;;;;5013889;28;20085;-70
2022/05/16 11:26:44;;;;;;;1.20;0.70;;;23.30;35.80;;;;;;5012471;28;20034;-70
2022/05/16 11:29:29;;;;;;;1.48;0.73;;;23.30;35.80;;;;;;5013652;28;20030;-70
2022/05/16 11:31:58;;;;;;;;;;;23.30;35.60;;;;;;5014172;28;20041;-70
2022/05/16 11:34:49;;;;;;;1.88;0.80;;;23.30;34.80;;;;;;5013674;28;19916;-70
2022/05/16 11:37:33;;;;;;;0.57;0.50;;;23.30;35.20;;;;;;5021261;28;20030;-69
2022/05/16 11:40:17;;;;;;;0.50;0.50;;;23.30;35.20;;;;;;5014031;28;20034;-69
2022/05/16 11:43:03;;;;;;;1.85;0.70;;;23.30;35.30;;;;;;5013575;28;20032;-69
2022/05/16 11:45:38;;;;;;;0.68;0.68;;;23.30;35.30;;;;;;5013991;28;20045;-69
2022/05/16 11:48:23;;;;;;;2.53;0.88;;;23.30;35.20;;;;;;5013819;28;20034;-69
2022/05/16 11:50:54;;;;;;;1.02;0.70;;;23.40;35.10;;;;;;5013620;28;20034;-70
2022/05/16 11:53:49;;;;;;;2.63;0.75;;;23.50;35.00;;;;;;5012216;28;20034;-70
2022/05/16 12:02:17;;;;;;;0.88;0.80;;;23.50;34.40;;;;;;5016019;28;20041;-70
2022/05/16 12:04:47;;;;;;;1.10;0.60;;;23.50;34.70;;;;;;5017158;28;20025;-70
2022/05/16 12:07:20;;;;;;;0.70;0.70;;;23.50;34.60;;;;;;5017521;28;20034;-69
2022/05/16 12:10:14;;;;;;;1.47;0.83;;;23.50;34.60;;;;;;5017101;28;20109;-69
2022/05/16 12:12:43;;;;;;;1.27;0.60;;;23.40;34.30;;;;;;5017421;28;20469;-69
2022/05/16 12:15:18;;;;;;;0.50;0.50;;;23.40;34.40;;;;;;5016925;28;20380;-69
2022/05/16 12:17:55;;;;;;;0.77;0.77;;;23.40;34.30;;;;;;5017215;28;20057;-69
2022/05/16 12:20:44;;;;;;;0.60;0.60;;;23.30;34.20;;;;;;5017437;28;20502;-70
2022/05/16 12:23:13;;;;;;;1.02;0.90;;;23.30;33.50;;;;;;5017328;28;20076;-70
2022/05/16 12:25:39;;;;;;;1.35;0.60;;;23.30;34.30;;;;;;5016776;28;20054;-70
2022/05/16 12:28:17;;;;;;;1.33;0.70;;;23.30;34.30;;;;;;5016883;28;20084;-70
2022/05/16 12:30:54;;;;;;;0.80;0.80;;;23.30;34.10;;;;;;5016759;28;20057;-70
2022/05/16 12:33:23;;;;;;;1.65;0.80;;;23.30;34.10;;;;;;5015886;28;20113;-70
2022/05/16 12:35:51;;;;;;;0.50;0.50;;;23.30;34.30;;;;;;5016758;28;20057;-70
2022/05/16 12:38:18;;;;;;;0.82;0.60;;;23.50;34.40;;;;;;5017139;28;20038;-69
2022/05/16 12:40:46;;;;;;;1.55;0.77;;;23.60;34.30;;;;;;5016486;28;20029;-70
2022/05/16 12:43:27;;;;;;;1.75;0.70;;;23.70;34.00;;;;;;5016462;28;20119;-69
2022/05/16 12:46:32;;;;;;;1.23;0.60;;;23.80;33.90;;;;;;5016517;28;20046;-69
2022/05/16 12:49:22;;;;;;;2.13;0.60;;;23.90;33.20;;;;;;5016970;28;20064;-69
2022/05/16 12:51:56;;;;;;;0.68;0.60;;;23.90;33.20;;;;;;5016583;28;20030;-70
2022/05/16 12:54:46;;;;;;;1.08;0.70;;;24.00;33.70;;;;;;5015604;28;20466;-70
2022/05/16 12:57:21;;;;;;;0.50;0.50;;;24.10;33.30;;;;;;5016433;28;20088;-69
2022/05/16 12:59:56;;;;;;;1.27;0.70;;;24.20;33.40;;;;;;5016344;28;20026;-69
2022/05/16 13:02:31;;;;;;;1.20;0.80;;;24.40;33.30;;;;;;5016472;28;20431;-69
2022/05/16 13:05:06;;;;;;;0.50;0.50;;;24.40;33.30;;;;;;5016164;28;20038;-70
2022/05/16 13:07:56;;;;;;;1.27;0.70;;;24.50;33.20;;;;;;5016170;28;20468;-70
2022/05/16 13:10:30;;;;;;;1.70;0.70;;;24.60;32.90;;;;;;5016411;28;20029;-70
2022/05/16 13:13:09;;;;;;;1.88;0.70;;;24.70;33.10;;;;;;5016012;28;20025;-69
2022/05/16 13:15:51;;;;;;;0.60;0.50;;;24.70;32.90;;;;;;5016377;28;20022;-69
2022/05/16 13:18:26;;;;;;;1.75;0.80;;;24.60;32.70;;;;;;5015879;28;20029;-69
2022/05/16 13:20:56;;;;;;;0.75;0.65;;;24.50;33.00;;;;;;5014501;28;20144;-69
2022/05/16 13:23:22;;;;;;;1.48;0.68;;;24.40;33.10;;;;;;5016206;28;20033;-69
2022/05/16 13:31:44;;;;;;;0.98;0.70;;;24.20;33.30;;;;;;5015880;28;20076;-68
2022/05/16 13:34:11;;;;;;;0.95;0.70;;;24.30;33.60;;;;;;5015752;28;20038;-69
2022/05/16 13:36:38;;;;;;;1.10;0.82;;;24.40;33.60;;;;;;5014369;28;20438;-69
2022/05/16 13:39:11;;;;;;;2.08;0.75;;;24.50;33.50;;;;;;5015583;28;20021;-70
2022/05/16 13:41:38;;;;;;;2.60;1.30;;;24.50;33.30;;;;;;5015732;28;20026;-70
2022/05/16 13:44:09;;;;;;;1.45;0.90;;;24.50;33.30;;;;;;5015472;28;20460;-70
2022/05/16 13:46:35;;;;;;;1.13;0.65;;;24.40;33.10;;;;;;5015740;28;20079;-69